Terminal Aerodrome Forecast
Issued by NWS

Home | Current Version | Previous Version | Text Only | Print | Product List | Glossary On
Versions: 1 2 3 4 5 6 7 8 9 10 11 12
357
FTAK31 PAJN 210529
TAFAWG
TAF
PAWG 210529Z 2106/2206 12012G22KT P6SM VCSH SCT030 BKN050 OVC070
      WS020/15035KT
     FM210900 12012KT 5SM -RA BR SCT025 OVC050 WS020/15035KT
     FM211200 12012KT 4SM -RA BR SCT015 BKN030 OVC050
     FM211600 12016KT 4SM -RA BR OVC015 WS020/15035KT
     FM212200 11016KT 5SM -RA BR SCT015 OVC025 WS020/15035KT
     FM220300 12009KT 6SM -RA BR SCT030 OVC050 WS020/15035KT
      AMD LTD TO CLD VIS AND WIND 2106/2115=

USA.gov is the U.S. government's official web portal to all federal, state and local government web resources and services.